Time;durP1;ratioP1;P1;durP2;ratioP2;P2;SDS_P1;SDS_P2;PMS_P1;PMS_P2;Temp;Humidity;BMP_temperature;BMP_pressure;BME280_temperature;BME280_humidity;BME280_pressure;Samples;Min_cycle;Max_cycle;Signal;HPM_P1;HPM_P2
2024/02/17 00:00:49;;;;;;;38.50;23.20;;;;;;;2.49;79.41;100595.30;106824;1264;60429;-39
2024/02/17 00:03:22;;;;;;;39.90;22.20;;;;;;;2.54;79.31;100598.77;106711;1264;73913;-39
2024/02/17 00:05:51;;;;;;;41.00;23.10;;;;;;;2.51;79.15;100598.14;106797;1262;67620;-39
2024/02/17 00:08:18;;;;;;;43.80;22.90;;;;;;;2.50;79.44;100594.02;106732;1264;72720;-39
2024/02/17 00:10:46;;;;;;;43.30;23.70;;;;;;;2.50;79.35;100594.18;106594;1264;180827;-39
2024/02/17 00:16:21;;;;;;;40.70;22.60;;;;;;;2.53;78.98;100592.61;103475;1291;1003651;-39
2024/02/17 00:18:48;;;;;;;39.60;22.50;;;;;;;2.59;78.98;100593.27;106630;1264;59331;-40
2024/02/17 00:21:16;;;;;;;39.70;23.40;;;;;;;2.60;78.88;100590.65;106698;1266;60014;-39
2024/02/17 00:23:44;;;;;;;41.40;23.20;;;;;;;2.60;79.03;100586.52;106821;1264;72232;-40
2024/02/17 00:26:16;;;;;;;41.40;24.30;;;;;;;2.61;78.99;100585.50;106713;1264;68384;-40
2024/02/17 00:28:44;;;;;;;41.80;23.70;;;;;;;2.59;78.95;100582.84;106661;1264;196917;-40
2024/02/17 00:31:12;;;;;;;36.60;22.10;;;;;;;2.65;78.92;100585.69;106892;1266;59777;-40
2024/02/17 00:33:39;;;;;;;36.00;22.00;;;;;;;2.73;78.65;100588.86;106926;1266;59988;-40
2024/02/17 00:36:08;;;;;;;37.60;22.10;;;;;;;2.75;78.68;100587.52;106911;1263;71850;-39
2024/02/17 00:38:35;;;;;;;40.30;23.20;;;;;;;2.74;78.43;100586.77;107132;1260;68353;-40
2024/02/17 00:41:06;;;;;;;37.50;22.80;;;;;;;2.69;78.25;100587.86;107126;1259;72652;-40
2024/02/17 00:43:34;;;;;;;36.90;22.00;;;;;;;2.64;78.36;100587.14;106910;1263;59634;-40
2024/02/17 00:46:02;;;;;;;37.70;21.80;;;;;;;2.64;78.34;100590.57;107050;1260;59579;-40
2024/02/17 00:48:30;;;;;;;36.50;21.30;;;;;;;2.62;77.89;100590.89;106958;1259;73080;-40
2024/02/17 00:50:58;;;;;;;38.50;22.50;;;;;;;2.61;77.93;100588.71;106968;1260;68355;-40
2024/02/17 00:53:42;;;;;;;39.80;22.20;;;;;;;2.55;77.76;100590.73;106993;1264;72679;-40
2024/02/17 00:56:10;;;;;;;36.70;22.10;;;;;;;2.47;78.21;100592.70;104129;1259;1003762;-40
2024/02/17 00:58:37;;;;;;;44.60;23.50;;;;;;;2.41;78.21;100590.91;107051;1260;60353;-40
2024/02/17 01:01:05;;;;;;;39.40;22.30;;;;;;;2.38;78.61;100593.16;107117;1260;73030;-40
2024/02/17 01:03:34;;;;;;;37.00;21.10;;;;;;;2.42;78.87;100591.60;107027;1260;68848;-40
2024/02/17 01:06:03;;;;;;;41.70;23.00;;;;;;;2.49;78.62;100585.23;107411;1259;71392;-40
2024/02/17 01:08:31;;;;;;;36.90;21.60;;;;;;;2.50;78.60;100588.67;107309;1257;59477;-40
2024/02/17 01:10:58;;;;;;;46.50;23.40;;;;;;;2.47;78.45;100586.75;107344;1256;59992;-40
2024/02/17 01:13:26;;;;;;;43.40;24.00;;;;;;;2.44;78.80;100585.59;107317;1257;71751;-40
2024/02/17 01:15:54;;;;;;;50.30;24.30;;;;;;;2.40;78.75;100581.39;107442;1256;66971;-40
2024/02/17 01:18:22;;;;;;;46.10;25.50;;;;;;;2.37;78.96;100582.67;107471;1257;72674;-40
2024/02/17 01:20:50;;;;;;;44.10;24.20;;;;;;;2.40;79.01;100582.99;107313;1257;60908;-40
2024/02/17 01:23:19;;;;;;;42.70;23.50;;;;;;;2.44;78.79;100585.11;107334;1257;59488;-40
2024/02/17 01:25:46;;;;;;;41.30;23.70;;;;;;;2.42;78.76;100577.89;107458;1255;73060;-40
2024/02/17 01:28:14;;;;;;;45.10;25.40;;;;;;;2.42;79.15;100574.36;107278;1255;68531;-40
2024/02/17 01:30:42;;;;;;;51.80;25.80;;;;;;;2.42;79.14;100571.46;107284;1255;72678;-39
2024/02/17 01:33:09;;;;;;;45.40;23.50;;;;;;;2.39;79.08;100568.98;107372;1256;59481;-40
2024/02/17 01:35:37;;;;;;;44.00;22.80;;;;;;;2.41;79.06;100563.39;107369;1256;59663;-40
2024/02/17 01:38:07;;;;;;;40.70;22.30;;;;;;;2.47;78.84;100565.45;107358;1257;73021;-40
2024/02/17 01:40:34;;;;;;;;;;;;;;;2.49;78.85;100562.60;107377;1257;68678;-39
2024/02/17 01:43:05;;;;;;;44.00;22.70;;;;;;;2.44;78.94;100552.99;107247;1260;72780;-40
2024/02/17 01:45:33;;;;;;;46.30;24.40;;;;;;;2.47;78.97;100563.36;107169;1257;59714;-40
2024/02/17 01:48:01;;;;;;;47.50;24.70;;;;;;;2.47;79.06;100556.19;107203;1260;60036;-39
2024/02/17 01:50:29;;;;;;;46.00;23.10;;;;;;;2.46;79.15;100556.09;107199;1257;73042;-40
2024/02/17 01:52:57;;;;;;;46.00;22.20;;;;;;;2.53;78.96;100552.57;107143;1256;68691;-40
2024/02/17 01:55:25;;;;;;;44.50;23.10;;;;;;;2.64;78.72;100554.21;107250;1260;71422;-40
2024/02/17 01:57:53;;;;;;;43.10;23.90;;;;;;;2.68;78.39;100554.77;106551;1256;1003756;-40
2024/02/17 02:00:22;;;;;;;44.10;25.00;;;;;;;2.69;78.37;100549.48;107319;1256;59980;-40
2024/02/17 02:02:50;;;;;;;49.60;23.70;;;;;;;2.68;78.40;100554.08;107233;1256;73068;-40
2024/02/17 02:05:18;;;;;;;43.00;23.30;;;;;;;2.66;78.26;100553.24;107261;1256;68378;-40
2024/02/17 02:07:47;;;;;;;40.20;21.60;;;;;;;2.62;78.01;100550.46;107343;1257;72666;-39
2024/02/17 02:10:14;;;;;;;36.70;20.60;;;;;;;2.65;78.10;100553.09;107190;1256;59707;-40
2024/02/17 02:12:42;;;;;;;37.30;21.90;;;;;;;2.72;77.64;100552.18;106484;1260;1003062;-40
2024/02/17 02:15:10;;;;;;;39.70;22.30;;;;;;;2.75;77.70;100552.71;107222;1257;73057;-39
2024/02/17 02:17:43;;;;;;;35.20;19.40;;;;;;;2.73;77.49;100548.36;107266;1257;66456;-40
2024/02/17 02:20:13;;;;;;;36.80;22.50;;;;;;;2.64;77.05;100545.75;107213;1256;72805;-40
2024/02/17 02:22:43;;;;;;;35.60;22.20;;;;;;;2.51;77.26;100546.80;107200;1257;59730;-40
2024/02/17 02:25:20;;;;;;;27.50;16.10;;;;;;;2.41;77.21;100544.45;107305;1255;59624;-40
2024/02/17 02:27:48;;;;;;;33.80;19.50;;;;;;;2.36;77.20;100543.63;107251;1261;73028;-40
2024/02/17 02:30:15;;;;;;;29.20;19.30;;;;;;;2.35;77.23;100539.56;107307;1256;68369;-41
2024/02/17 02:32:43;;;;;;;29.90;18.90;;;;;;;2.32;77.43;100534.43;107378;1256;72356;-41
2024/02/17 02:35:10;;;;;;;32.10;19.80;;;;;;;2.31;77.56;100532.46;107360;1256;59358;-40
2024/02/17 02:37:38;;;;;;;30.80;19.00;;;;;;;2.29;77.60;100526.09;107379;1256;59990;-40
2024/02/17 02:40:06;;;;;;;30.30;19.30;;;;;;;2.26;77.55;100530.51;107309;1260;73018;-39
2024/02/17 02:42:34;;;;;;;29.30;19.80;;;;;;;2.24;77.42;100524.58;107381;1257;67746;-39
2024/02/17 02:45:01;;;;;;;30.90;18.80;;;;;;;2.27;77.64;100525.09;107286;1259;72678;-40
2024/02/17 02:47:29;;;;;;;29.60;18.50;;;;;;;2.34;77.54;100523.25;107186;1257;59445;-39
2024/02/17 02:49:59;;;;;;;31.40;19.70;;;;;;;2.38;77.25;100524.88;107215;1255;60095;-39
2024/02/17 02:52:27;;;;;;;30.30;20.00;;;;;;;2.30;77.41;100520.64;107265;1255;72854;-40
2024/02/17 02:54:54;;;;;;;34.50;20.90;;;;;;;2.25;77.53;100520.55;107280;1257;68421;-40
2024/02/17 02:57:22;;;;;;;34.00;20.70;;;;;;;2.20;77.38;100515.83;107283;1257;71681;-39
2024/02/17 02:59:51;;;;;;;36.00;22.10;;;;;;;2.18;77.63;100514.54;107275;1255;59959;-39
2024/02/17 03:02:18;;;;;;;31.30;19.30;;;;;;;2.24;77.64;100515.80;107181;1256;60029;-40
2024/02/17 03:04:47;;;;;;;31.00;20.70;;;;;;;2.32;77.61;100511.73;107362;1256;73052;-39
2024/02/17 03:07:14;;;;;;;33.40;20.60;;;;;;;2.36;77.48;100509.48;107281;1256;66590;-39
2024/02/17 03:09:42;;;;;;;37.40;24.30;;;;;;;2.31;77.37;100508.05;107373;1257;72664;-40
2024/02/17 03:12:10;;;;;;;38.50;24.10;;;;;;;2.27;77.62;100508.30;107312;1255;59554;-39
2024/02/17 03:14:42;;;;;;;42.50;26.90;;;;;;;2.24;77.59;100509.00;107299;1260;59982;-39
2024/02/17 03:17:10;;;;;;;42.80;25.70;;;;;;;2.20;77.57;100508.81;107334;1256;73082;-39
2024/02/17 03:19:37;;;;;;;43.80;25.00;;;;;;;2.17;77.52;100508.23;107278;1256;68447;-39
2024/02/17 03:22:05;;;;;;;40.20;25.60;;;;;;;2.14;77.54;100509.86;107344;1257;73047;-39
2024/02/17 03:24:33;;;;;;;41.70;26.60;;;;;;;2.05;77.57;100509.80;107279;1257;59608;-40
2024/02/17 03:27:01;;;;;;;45.10;26.90;;;;;;;2.00;78.19;100512.48;107292;1255;59247;-39
2024/02/17 03:29:28;;;;;;;49.20;27.70;;;;;;;1.97;78.35;100514.98;107302;1257;72150;-39
2024/02/17 03:31:56;;;;;;;42.30;27.40;;;;;;;1.96;78.54;100512.94;107251;1257;68377;-39
2024/02/17 03:34:24;;;;;;;43.20;26.80;;;;;;;1.96;78.77;100508.66;107257;1257;72638;-40
2024/02/17 03:36:52;;;;;;;44.50;26.60;;;;;;;2.01;78.69;100513.07;107165;1261;60897;-40
2024/02/17 03:39:19;;;;;;;44.40;25.10;;;;;;;2.08;78.53;100511.12;107224;1254;60034;-40
2024/02/17 03:41:47;;;;;;;40.80;25.60;;;;;;;2.12;78.48;100510.20;107221;1256;73028;-39
2024/02/17 03:44:15;;;;;;;40.10;25.40;;;;;;;2.13;78.46;100509.87;105771;1257;1003377;-40
2024/02/17 03:46:43;;;;;;;39.90;24.50;;;;;;;2.13;78.65;100505.96;107262;1256;71106;-40
2024/02/17 03:49:11;;;;;;;40.10;24.00;;;;;;;2.14;78.45;100506.48;107366;1255;59519;-39
2024/02/17 03:51:39;;;;;;;39.60;24.10;;;;;;;2.11;78.33;100506.08;107324;1260;59224;-39
2024/02/17 03:54:07;;;;;;;41.20;23.10;;;;;;;2.08;77.91;100509.14;107277;1256;73091;-40
2024/02/17 03:56:35;;;;;;;37.00;24.10;;;;;;;2.09;77.87;100507.10;106553;1257;1002917;-39
2024/02/17 03:59:02;;;;;;;41.70;24.90;;;;;;;2.11;77.85;100507.95;106495;1257;1003286;-39
2024/02/17 04:01:37;;;;;;;42.10;25.80;;;;;;;2.06;78.04;100504.12;107305;1260;59679;-40
2024/02/17 04:04:04;;;;;;;41.10;24.90;;;;;;;2.03;78.15;100506.98;107317;1257;60050;-40
2024/02/17 04:06:32;;;;;;;38.40;24.40;;;;;;;2.00;78.31;100509.55;107294;1255;73088;-40
2024/02/17 04:09:00;;;;;;;39.00;23.40;;;;;;;1.99;78.51;100512.23;107370;1256;67098;-39
2024/02/17 04:11:27;;;;;;;35.70;21.80;;;;;;;2.04;78.16;100508.94;107281;1256;72669;-39
2024/02/17 04:13:58;;;;;;;35.00;21.50;;;;;;;2.11;77.88;100510.58;107246;1257;59637;-39
2024/02/17 04:16:26;;;;;;;33.80;22.00;;;;;;;2.16;77.84;100504.23;107301;1256;60279;-39
2024/02/17 04:18:53;;;;;;;37.30;22.80;;;;;;;2.20;77.71;100503.73;107319;1257;71849;-40
2024/02/17 04:21:21;;;;;;;38.10;23.00;;;;;;;2.22;77.71;100502.08;107304;1260;67123;-39
2024/02/17 04:23:49;;;;;;;34.90;21.70;;;;;;;2.21;77.46;100495.91;107333;1257;71605;-39
2024/02/17 04:26:17;;;;;;;38.90;22.50;;;;;;;2.17;77.43;100496.85;107295;1260;59845;-39
2024/02/17 04:28:45;;;;;;;34.30;21.80;;;;;;;2.17;77.24;100497.23;107379;1256;60303;-40
2024/02/17 04:31:13;;;;;;;27.80;16.10;;;;;;;2.17;76.91;100493.67;107292;1257;73523;-39
2024/02/17 04:33:41;;;;;;;35.80;21.30;;;;;;;2.18;76.87;100493.09;107219;1257;68708;-39
2024/02/17 04:36:09;;;;;;;34.30;21.40;;;;;;;2.16;76.98;100489.69;107180;1257;72464;-40
2024/02/17 04:38:38;;;;;;;39.50;22.30;;;;;;;2.14;77.03;100491.17;107205;1256;61105;-39
2024/02/17 04:41:06;;;;;;;37.30;22.60;;;;;;;2.13;77.02;100487.02;107259;1257;60420;-39
2024/02/17 04:43:33;;;;;;;33.90;23.00;;;;;;;2.10;76.99;100486.55;107242;1255;73922;-39
2024/02/17 04:46:01;;;;;;;33.90;21.60;;;;;;;2.07;77.01;100490.32;107198;1257;67611;-39
2024/02/17 04:48:28;;;;;;;34.70;21.90;;;;;;;2.08;76.67;100490.25;107200;1256;72918;-39
2024/02/17 04:50:56;;;;;;;33.60;21.60;;;;;;;2.05;76.38;100486.95;107188;1256;60870;-39
2024/02/17 04:53:23;;;;;;;34.40;21.00;;;;;;;2.01;76.53;100490.40;107196;1256;60339;-39
2024/02/17 04:55:51;;;;;;;33.50;21.80;;;;;;;1.95;76.59;100491.40;107232;1257;74169;-39
2024/02/17 04:58:19;;;;;;;37.30;23.00;;;;;;;1.86;76.64;100496.77;107287;1257;68351;-39
2024/02/17 05:00:47;;;;;;;36.20;22.90;;;;;;;1.80;77.10;100492.48;107278;1256;72663;-39
2024/02/17 05:03:15;;;;;;;35.70;22.30;;;;;;;1.77;77.16;100491.48;107276;1256;60874;-39
2024/02/17 05:05:43;;;;;;;39.20;23.70;;;;;;;1.76;77.24;100491.52;107316;1255;60415;-39
2024/02/17 05:08:12;;;;;;;32.50;20.70;;;;;;;1.78;77.46;100496.23;107280;1255;73854;-39
2024/02/17 05:10:39;;;;;;;33.60;21.40;;;;;;;1.82;77.41;100496.69;107291;1257;67235;-39
2024/02/17 05:13:07;;;;;;;35.70;22.70;;;;;;;1.81;77.23;100496.21;107268;1256;72661;-39
2024/02/17 05:15:35;;;;;;;32.10;21.50;;;;;;;1.75;77.41;100494.36;107294;1257;60386;-39
2024/02/17 05:18:03;;;;;;;38.30;23.40;;;;;;;1.72;77.53;100497.48;107304;1257;60398;-39
2024/02/17 05:20:31;;;;;;;33.80;22.10;;;;;;;1.69;77.60;100497.27;107200;1256;73843;-40
2024/02/17 05:22:58;;;;;;;35.00;22.70;;;;;;;1.66;77.51;100500.80;107248;1260;68385;-39
2024/02/17 05:25:26;;;;;;;30.30;20.30;;;;;;;1.68;77.46;100501.61;107279;1254;72713;-39
2024/02/17 05:27:53;;;;;;;29.00;19.70;;;;;;;1.70;77.60;100499.83;107282;1256;60868;-40
2024/02/17 05:30:22;;;;;;;31.10;19.70;;;;;;;1.69;77.47;100495.61;107266;1254;60409;-39
2024/02/17 05:32:50;;;;;;;31.90;20.20;;;;;;;1.71;77.58;100496.45;107177;1254;73877;-39
2024/02/17 05:35:17;;;;;;;33.40;21.40;;;;;;;1.72;77.71;100494.00;107224;1257;68471;-39
2024/02/17 05:37:45;;;;;;;32.50;20.40;;;;;;;1.73;77.69;100496.09;107194;1256;72675;-39
2024/02/17 05:40:13;;;;;;;33.60;20.70;;;;;;;1.73;77.54;100495.81;107201;1256;59598;-39
2024/02/17 05:42:40;;;;;;;32.50;20.40;;;;;;;1.76;77.46;100497.73;107255;1257;60338;-39
2024/02/17 05:45:09;;;;;;;33.70;20.50;;;;;;;1.79;77.23;100496.07;107255;1256;72852;-39
2024/02/17 05:47:37;;;;;;;25.90;18.70;;;;;;;1.77;77.25;100486.98;107355;1256;67405;-39
2024/02/17 05:50:06;;;;;;;28.60;19.20;;;;;;;1.84;77.06;100488.87;107299;1256;71386;-39
2024/02/17 05:52:33;;;;;;;30.30;19.40;;;;;;;1.85;77.31;100489.46;107308;1257;60415;-39
2024/02/17 05:55:01;;;;;;;32.10;21.60;;;;;;;1.84;76.90;100486.09;107317;1256;60395;-39
2024/02/17 05:57:29;;;;;;;35.90;22.00;;;;;;;1.84;77.18;100487.53;107328;1257;73875;-39
2024/02/17 05:59:56;;;;;;;32.50;21.50;;;;;;;1.82;76.94;100490.38;107317;1256;68236;-39
2024/02/17 06:02:24;;;;;;;30.10;20.30;;;;;;;1.84;76.91;100489.73;107286;1256;72780;-39
2024/02/17 06:04:52;;;;;;;30.00;20.50;;;;;;;1.87;76.76;100493.84;107288;1257;60299;-40
2024/02/17 06:07:20;;;;;;;30.80;21.00;;;;;;;1.85;76.96;100494.32;107318;1257;59189;-39
2024/02/17 06:09:48;;;;;;;31.60;21.30;;;;;;;1.83;76.76;100494.34;107421;1257;73830;-40
2024/02/17 06:12:16;;;;;;;35.10;23.50;;;;;;;1.81;76.79;100500.16;107340;1258;68373;-40
2024/02/17 06:14:43;;;;;;;31.90;21.30;;;;;;;1.80;76.77;100502.04;107294;1256;72651;-39
2024/02/17 06:17:19;;;;;;;30.30;21.00;;;;;;;1.78;76.74;100503.29;107290;1256;60559;-39
2024/02/17 06:22:33;;;;;;;34.20;23.10;;;;;;;1.88;76.55;100500.53;107268;1257;73820;-40
2024/02/17 06:25:00;;;;;;;41.10;24.50;;;;;;;1.89;76.79;100501.58;107181;1256;66137;-39
2024/02/17 06:27:28;;;;;;;37.50;24.00;;;;;;;1.88;76.84;100502.23;107180;1256;72674;-40
2024/02/17 06:29:56;;;;;;;39.80;25.60;;;;;;;1.86;76.56;100503.14;107293;1257;60310;-40
2024/02/17 06:32:23;;;;;;;41.50;25.90;;;;;;;1.83;76.55;100505.67;107306;1260;60391;-39
2024/02/17 06:34:51;;;;;;;42.80;26.40;;;;;;;1.78;76.68;100500.34;107242;1255;72553;-39
2024/02/17 06:37:19;;;;;;;42.50;26.10;;;;;;;1.78;76.64;100504.89;107229;1260;68364;-40
2024/02/17 06:39:46;;;;;;;45.90;27.50;;;;;;;1.76;76.31;100504.57;107228;1256;72638;-40
2024/02/17 06:42:17;;;;;;;46.90;28.50;;;;;;;1.71;76.39;100504.90;107254;1257;60300;-40
2024/02/17 06:44:45;;;;;;;47.90;29.20;;;;;;;1.65;76.57;100502.95;107339;1257;60281;-40
2024/02/17 06:47:12;;;;;;;51.80;29.70;;;;;;;1.64;76.95;100502.00;107307;1258;73882;-40
2024/02/17 06:49:39;;;;;;;55.50;31.80;;;;;;;1.60;77.14;100497.24;107287;1257;68827;-40
2024/02/17 06:52:07;;;;;;;60.40;31.80;;;;;;;1.53;77.27;100501.55;107278;1255;73005;-40
2024/02/17 06:54:35;;;;;;;56.90;32.20;;;;;;;1.53;77.30;100504.86;107292;1257;60636;-40
2024/02/17 06:57:03;;;;;;;52.30;31.10;;;;;;;1.54;77.52;100506.26;107299;1257;60276;-40
2024/02/17 06:59:32;;;;;;;55.70;32.80;;;;;;;1.58;77.64;100507.67;107305;1256;73871;-40
2024/02/17 07:02:00;;;;;;;57.80;34.40;;;;;;;1.62;77.68;100504.67;105799;1257;1003688;-40
2024/02/17 07:04:27;;;;;;;64.30;34.90;;;;;;;1.62;77.89;100504.40;107270;1260;72694;-40
2024/02/17 07:06:55;;;;;;;65.70;35.70;;;;;;;1.64;77.81;100503.92;107291;1256;60326;-39
2024/02/17 07:09:24;;;;;;;71.20;36.60;;;;;;;1.66;78.13;100501.98;107287;1260;60083;-39
2024/02/17 07:11:52;;;;;;;65.70;36.30;;;;;;;1.72;77.84;100505.39;107279;1255;73844;-40
2024/02/17 07:14:19;;;;;;;61.50;34.50;;;;;;;1.76;77.55;100502.21;107295;1255;68423;-40
2024/02/17 07:16:47;;;;;;;65.60;35.50;;;;;;;1.77;77.34;100503.40;107313;1258;72701;-39
2024/02/17 07:19:14;;;;;;;68.40;37.20;;;;;;;1.76;77.60;100502.31;107276;1260;60444;-39
2024/02/17 07:21:42;;;;;;;67.80;37.20;;;;;;;1.73;77.56;100505.55;107205;1260;60349;-40
2024/02/17 07:24:09;;;;;;;69.20;36.90;;;;;;;1.69;77.58;100508.98;107251;1260;73926;-40
2024/02/17 07:26:43;;;;;;;72.50;37.80;;;;;;;1.66;77.72;100504.55;107273;1260;68415;-39
2024/02/17 07:29:11;;;;;;;69.00;36.90;;;;;;;1.69;78.00;100506.41;107311;1260;72690;-40
2024/02/17 07:31:42;;;;;;;63.10;36.20;;;;;;;1.68;77.92;100506.95;107263;1257;60423;-40
2024/02/17 07:34:15;;;;;;;70.30;38.00;;;;;;;1.67;78.23;100502.41;107277;1256;60018;-39
2024/02/17 07:36:43;;;;;;;78.20;40.40;;;;;;;1.71;78.52;100503.14;107287;1260;73828;-39
2024/02/17 07:39:10;;;;;;;72.80;38.60;;;;;;;1.77;78.53;100501.48;107277;1258;68373;-40
2024/02/17 07:41:38;;;;;;;73.10;38.70;;;;;;;1.80;77.98;100502.37;107264;1260;72701;-39
2024/02/17 07:44:09;;;;;;;74.60;39.10;;;;;;;1.81;77.91;100505.03;107291;1258;60372;-39
2024/02/17 07:46:36;;;;;;;71.10;38.40;;;;;;;1.80;77.69;100496.64;107321;1256;60518;-40
2024/02/17 07:49:05;;;;;;;93.60;45.40;;;;;;;1.76;77.75;100494.30;107306;1257;72653;-39
2024/02/17 07:51:34;;;;;;;85.60;43.90;;;;;;;1.72;78.23;100493.20;107355;1257;68545;-39
2024/02/17 07:54:02;;;;;;;66.60;31.40;;;;;;;1.68;78.15;100494.60;107297;1254;71808;-39
2024/02/17 07:56:30;;;;;;;84.60;42.80;;;;;;;1.66;78.57;100490.33;107312;1258;60515;-40
2024/02/17 07:58:58;;;;;;;83.40;43.00;;;;;;;1.70;78.61;100489.83;107276;1260;60479;-40
2024/02/17 08:01:25;;;;;;;85.10;43.00;;;;;;;1.77;78.62;100490.73;107336;1259;73081;-39
2024/02/17 08:03:53;;;;;;;88.20;43.50;;;;;;;1.81;78.64;100493.86;107327;1256;68398;-40
2024/02/17 08:06:21;;;;;;;88.40;43.20;;;;;;;1.81;78.57;100492.05;107402;1260;73708;-40
2024/02/17 08:08:49;;;;;;;92.30;43.40;;;;;;;1.78;78.51;100492.91;107343;1259;60322;-40
2024/02/17 08:11:17;;;;;;;92.70;42.20;;;;;;;1.76;78.59;100488.42;107324;1255;60565;-40
2024/02/17 08:13:45;;;;;;;92.60;43.40;;;;;;;1.77;78.65;100485.32;107345;1255;73932;-40
2024/02/17 08:16:14;;;;;;;90.50;41.90;;;;;;;1.82;78.70;100482.52;107403;1259;68402;-40
2024/02/17 08:18:42;;;;;;;77.80;34.50;;;;;;;1.85;78.53;100485.55;107278;1257;72750;-40
2024/02/17 08:21:11;;;;;;;83.90;34.50;;;;;;;1.86;78.47;100484.64;107312;1259;60509;-40
2024/02/17 08:23:41;;;;;;;96.50;43.10;;;;;;;1.84;78.54;100481.81;107246;1254;60361;-40
2024/02/17 08:26:11;;;;;;;104.10;45.80;;;;;;;1.83;78.99;100484.81;107295;1254;73762;-39
2024/02/17 08:28:39;;;;;;;98.70;42.00;;;;;;;1.87;79.12;100483.77;107353;1259;68394;-39
2024/02/17 08:31:07;;;;;;;99.40;43.40;;;;;;;1.92;78.92;100484.55;107317;1259;72686;-39
2024/02/17 08:33:36;;;;;;;99.10;44.10;;;;;;;1.97;78.39;100482.84;107302;1256;60879;-39
2024/02/17 08:36:04;;;;;;;101.70;45.00;;;;;;;1.97;78.26;100477.64;107328;1254;60431;-39
2024/02/17 08:38:31;;;;;;;110.00;46.70;;;;;;;1.95;78.55;100484.33;107322;1259;72592;-40
2024/02/17 08:41:02;;;;;;;102.60;45.90;;;;;;;1.90;78.65;100483.02;107347;1260;68338;-40
2024/02/17 08:43:29;;;;;;;99.00;43.60;;;;;;;1.88;78.97;100479.99;107244;1254;72716;-40
2024/02/17 08:45:58;;;;;;;102.60;43.40;;;;;;;1.90;79.05;100478.21;107286;1259;60353;-39
2024/02/17 08:48:26;;;;;;;101.70;43.40;;;;;;;1.97;79.27;100474.27;107291;1254;60397;-40
2024/02/17 08:50:54;;;;;;;101.10;43.00;;;;;;;2.04;79.02;100474.45;107334;1254;73958;-39
2024/02/17 08:53:21;;;;;;;99.20;44.10;;;;;;;2.09;79.19;100472.48;107418;1259;67445;-39
2024/02/17 08:55:49;;;;;;;107.00;43.80;;;;;;;2.14;79.23;100473.17;107330;1254;71796;-40
2024/02/17 08:58:17;;;;;;;109.00;46.20;;;;;;;2.17;79.15;100475.98;107344;1254;61060;-40
2024/02/17 09:00:44;;;;;;;111.60;45.70;;;;;;;2.17;79.21;100473.58;107720;1250;60287;-39
2024/02/17 09:03:12;;;;;;;112.70;45.70;;;;;;;2.22;79.01;100475.74;107762;1256;73846;-39
2024/02/17 09:05:40;;;;;;;103.80;43.50;;;;;;;2.25;78.76;100480.70;107727;1256;68543;-40
2024/02/17 09:08:08;;;;;;;106.30;45.20;;;;;;;2.29;78.91;100478.86;107727;1256;72734;-40
2024/02/17 09:10:35;;;;;;;109.10;44.70;;;;;;;2.32;79.04;100481.40;107717;1257;60403;-39
2024/02/17 09:13:04;;;;;;;100.80;43.40;;;;;;;2.35;79.11;100482.66;107812;1256;60367;-40
2024/02/17 09:15:31;;;;;;;109.60;45.30;;;;;;;2.37;78.90;100477.13;107785;1251;73820;-40
2024/02/17 09:18:00;;;;;;;103.50;43.60;;;;;;;2.36;78.91;100477.73;107733;1251;68741;-40
2024/02/17 09:20:28;;;;;;;97.50;42.30;;;;;;;2.33;78.68;100475.72;107711;1251;72740;-39
2024/02/17 09:22:56;;;;;;;101.70;43.40;;;;;;;2.34;78.97;100474.22;107613;1250;60480;-40
2024/02/17 09:25:23;;;;;;;95.60;42.80;;;;;;;2.39;79.31;100471.66;107576;1256;60424;-39
2024/02/17 09:27:51;;;;;;;92.10;42.60;;;;;;;2.41;79.12;100466.58;107646;1251;73951;-39
2024/02/17 09:30:19;;;;;;;82.70;40.40;;;;;;;2.39;79.22;100466.09;106194;1251;1003313;-40
2024/02/17 09:32:46;;;;;;;88.30;40.30;;;;;;;2.36;79.26;100462.48;107702;1254;72623;-39
2024/02/17 09:35:16;;;;;;;85.30;38.60;;;;;;;2.35;79.67;100457.57;107624;1255;60889;-40
2024/02/17 09:37:44;;;;;;;;;;;;;;;2.35;79.65;100458.05;107656;1251;60424;-40
2024/02/17 09:40:12;;;;;;;83.10;36.90;;;;;;;2.34;79.60;100452.27;107629;1251;73815;-40
2024/02/17 09:42:40;;;;;;;88.70;39.40;;;;;;;2.35;79.99;100448.36;107562;1251;67452;-39
2024/02/17 09:45:08;;;;;;;84.10;37.30;;;;;;;2.39;80.12;100446.19;107736;1251;71634;-40
2024/02/17 09:47:36;;;;;;;79.90;37.80;;;;;;;2.38;80.24;100445.44;107701;1255;59574;-40
2024/02/17 09:50:04;;;;;;;74.70;35.60;;;;;;;2.36;80.29;100437.08;107546;1251;60519;-40
2024/02/17 09:52:31;;;;;;;76.10;35.40;;;;;;;2.34;80.41;100435.94;107768;1250;73914;-39
2024/02/17 09:54:59;;;;;;;71.20;34.60;;;;;;;2.35;80.49;100432.90;107462;1257;67591;-39
2024/02/17 09:57:27;;;;;;;76.90;35.00;;;;;;;2.37;80.42;100427.05;107582;1254;72855;-40
2024/02/17 10:00:10;;;;;;;75.80;35.80;;;;;;;2.39;80.36;100427.45;107571;1257;60536;-40
2024/02/17 10:02:38;;;;;;;68.80;34.10;;;;;;;2.40;80.53;100422.63;107589;1251;60402;-40
2024/02/17 10:05:07;;;;;;;67.20;32.10;;;;;;;2.43;80.81;100424.38;107613;1251;72661;-40
2024/02/17 10:07:53;;;;;;;69.10;32.40;;;;;;;2.44;80.72;100421.75;107798;1251;69743;-40
2024/02/17 10:10:22;;;;;;;55.20;27.70;;;;;;;2.47;80.60;100413.98;107673;1256;73228;-39
2024/02/17 10:12:56;;;;;;;55.50;29.10;;;;;;;2.52;80.79;100412.52;107692;1251;61786;-39
2024/02/17 10:15:25;;;;;;;51.40;27.10;;;;;;;2.57;80.60;100406.32;107719;1251;60396;-39
2024/02/17 10:17:54;;;;;;;49.90;28.00;;;;;;;2.58;80.73;100404.77;107777;1251;74233;-40
2024/02/17 10:20:22;;;;;;;50.70;27.10;;;;;;;2.59;80.79;100404.92;107766;1251;68675;-39
2024/02/17 10:22:50;;;;;;;43.90;24.40;;;;;;;2.58;80.66;100401.13;107698;1251;70648;-40
2024/02/17 10:25:18;;;;;;;42.00;24.00;;;;;;;2.58;80.68;100396.84;107589;1251;61248;-41
2024/02/17 10:27:49;;;;;;;41.30;23.80;;;;;;;2.61;80.81;100396.77;107605;1250;60053;-40
2024/02/17 10:30:17;;;;;;;40.60;23.60;;;;;;;2.63;80.57;100388.93;107579;1251;74093;-40
2024/02/17 10:32:45;;;;;;;41.10;23.20;;;;;;;2.68;80.71;100392.64;107599;1256;67637;-40
2024/02/17 10:35:14;;;;;;;39.50;22.80;;;;;;;2.68;80.77;100390.17;107579;1251;71429;-41
2024/02/17 10:37:42;;;;;;;38.60;22.10;;;;;;;2.67;80.73;100394.19;107695;1254;60549;-39
2024/02/17 10:40:12;;;;;;;36.90;20.70;;;;;;;2.63;80.86;100393.42;107729;1256;60980;-38
2024/02/17 10:42:40;;;;;;;;;;;;;;;2.61;80.79;100391.09;107663;1251;73897;-39
2024/02/17 10:45:08;;;;;;;33.70;20.10;;;;;;;2.62;80.87;100388.03;107678;1251;68952;-39
2024/02/17 10:47:36;;;;;;;35.60;21.30;;;;;;;2.65;81.08;100381.15;107602;1251;72746;-38
2024/02/17 10:50:10;;;;;;;32.40;19.90;;;;;;;2.72;81.08;100384.19;107754;1255;60309;-38
2024/02/17 10:52:50;;;;;;;30.30;19.20;;;;;;;2.72;80.64;100378.94;107726;1255;60392;-39
2024/02/17 10:55:24;;;;;;;33.80;20.00;;;;;;;2.69;80.67;100378.55;107716;1251;73855;-39
2024/02/17 10:57:55;;;;;;;33.40;20.60;;;;;;;2.63;80.60;100371.15;107656;1257;68619;-40
2024/02/17 11:00:24;;;;;;;31.90;19.20;;;;;;;2.61;80.50;100368.73;107621;1254;72705;-40
2024/02/17 11:03:03;;;;;;;34.50;19.50;;;;;;;2.61;80.79;100365.16;107685;1254;60398;-39
2024/02/17 11:05:36;;;;;;;26.10;14.30;;;;;;;2.63;80.96;100363.76;107679;1254;60340;-40
2024/02/17 11:08:04;;;;;;;27.80;18.40;;;;;;;2.66;81.01;100354.59;107539;1254;73801;-39
2024/02/17 11:10:33;;;;;;;31.00;18.60;;;;;;;2.63;80.79;100355.69;107663;1254;69142;-39
2024/02/17 11:13:01;;;;;;;30.30;19.00;;;;;;;2.57;80.89;100355.21;107617;1257;72750;-39
2024/02/17 11:15:29;;;;;;;30.20;18.60;;;;;;;2.54;81.07;100353.57;107625;1253;61217;-40
2024/02/17 11:18:01;;;;;;;32.50;19.50;;;;;;;2.52;80.96;100350.91;107656;1252;60441;-40
2024/02/17 11:20:29;;;;;;;30.30;18.70;;;;;;;2.50;81.14;100350.83;107623;1251;72692;-40